Time;durP1;ratioP1;P1;durP2;ratioP2;P2;SDS_P1;SDS_P2;PMS_P1;PMS_P2;Temp;Humidity;BMP_temperature;BMP_pressure;BME280_temperature;BME280_humidity;BME280_pressure;Samples;Min_cycle;Max_cycle;Signal;HPM_P1;HPM_P2
2023/12/03 00:01:52;;;;;;;65.10;35.40;;;2.20;99.90;;;;;;6211828;23;20015;-73
2023/12/03 00:04:19;;;;;;;80.43;36.53;;;2.20;99.90;;;;;;6218381;23;20068;-76
2023/12/03 00:06:45;;;;;;;63.37;33.63;;;2.20;99.90;;;;;;6200361;23;20001;-76
2023/12/03 00:09:11;;;;;;;67.20;34.37;;;2.20;99.90;;;;;;6199952;23;20438;-76
2023/12/03 00:11:39;;;;;;;69.13;34.20;;;2.10;99.90;;;;;;6197661;23;20001;-76
2023/12/03 00:14:07;;;;;;;65.37;35.07;;;2.20;99.90;;;;;;6223616;23;20012;-76
2023/12/03 00:16:34;;;;;;;70.17;34.40;;;2.20;99.90;;;;;;6218935;23;20012;-76
2023/12/03 00:18:59;;;;;;;71.13;34.27;;;2.20;99.90;;;;;;6192885;23;20000;-76
2023/12/03 00:21:27;;;;;;;71.63;34.77;;;2.20;99.90;;;;;;6223397;23;19997;-76
2023/12/03 00:23:58;;;;;;;80.43;39.30;;;2.20;99.90;;;;;;6223855;23;20001;-77
2023/12/03 00:26:24;;;;;;;69.30;33.30;;;2.20;99.90;;;;;;6218158;23;20311;-76
2023/12/03 00:28:50;;;;;;;71.50;34.47;;;2.20;99.90;;;;;;6221649;23;20004;-76
2023/12/03 00:31:17;;;;;;;64.80;34.00;;;2.10;99.90;;;;;;6196731;23;20080;-76
2023/12/03 00:33:42;;;;;;;70.53;34.40;;;2.20;99.90;;;;;;6223749;23;20079;-76
2023/12/03 00:36:09;;;;;;;66.77;32.43;;;2.20;99.90;;;;;;6224445;23;20004;-76
2023/12/03 00:38:35;;;;;;;77.97;35.87;;;2.20;99.90;;;;;;6224352;23;20060;-76
2023/12/03 00:41:01;;;;;;;62.03;30.43;;;2.30;99.90;;;;;;6195882;23;20011;-76
2023/12/03 00:43:29;;;;;;;72.53;35.53;;;2.30;99.90;;;;;;6197688;23;20020;-76
2023/12/03 00:45:57;;;;;;;71.50;33.17;;;2.30;99.90;;;;;;6195373;23;20057;-76
2023/12/03 00:48:26;;;;;;;85.10;38.13;;;2.30;99.90;;;;;;6197662;23;20004;-76
2023/12/03 00:50:51;;;;;;;81.07;36.67;;;2.30;99.90;;;;;;6195714;23;20035;-76
2023/12/03 00:53:17;;;;;;;82.97;37.00;;;2.30;99.90;;;;;;6221778;23;20008;-76
2023/12/03 00:55:42;;;;;;;89.03;37.30;;;2.30;99.90;;;;;;6215201;23;20047;-76
2023/12/03 00:58:08;;;;;;;79.93;35.23;;;2.30;99.90;;;;;;6212506;23;20008;-76
2023/12/03 01:00:34;;;;;;;92.20;37.17;;;2.30;99.90;;;;;;6213205;23;20004;-76
2023/12/03 01:02:59;;;;;;;84.37;34.90;;;2.30;99.90;;;;;;6213095;23;20071;-76
2023/12/03 01:05:25;;;;;;;79.23;34.03;;;2.30;99.90;;;;;;6213747;23;20419;-76
2023/12/03 01:07:50;;;;;;;81.13;35.37;;;2.30;99.90;;;;;;6213329;23;20027;-76
2023/12/03 01:10:16;;;;;;;79.03;33.10;;;2.30;99.90;;;;;;6215689;23;20012;-76
2023/12/03 01:12:41;;;;;;;83.87;34.23;;;2.30;99.90;;;;;;6213210;23;20334;-75
2023/12/03 01:15:07;;;;;;;91.57;36.73;;;2.30;99.90;;;;;;6186164;23;20017;-75
2023/12/03 01:17:33;;;;;;;91.00;34.03;;;2.30;99.90;;;;;;6213096;23;20103;-76
2023/12/03 01:20:01;;;;;;;87.47;32.90;;;2.30;99.90;;;;;;6213442;23;19993;-76
2023/12/03 01:22:27;;;;;;;94.60;32.10;;;2.20;99.90;;;;;;6213252;23;20001;-76
2023/12/03 01:24:52;;;;;;;115.57;34.90;;;2.20;99.90;;;;;;6212972;23;20062;-76
2023/12/03 01:27:18;;;;;;;81.93;32.20;;;2.20;99.90;;;;;;6212847;23;20080;-75
2023/12/03 01:29:44;;;;;;;100.73;34.27;;;2.20;99.90;;;;;;6213697;23;20004;-75
2023/12/03 01:32:10;;;;;;;82.87;29.67;;;2.20;99.90;;;;;;6187434;23;20044;-76
2023/12/03 01:34:36;;;;;;;103.43;36.80;;;2.20;99.90;;;;;;6212974;23;20000;-75
2023/12/03 01:37:01;;;;;;;97.80;32.47;;;2.30;99.90;;;;;;6213130;23;20080;-76
2023/12/03 01:39:27;;;;;;;130.37;37.77;;;2.30;99.90;;;;;;6213018;23;20016;-76
2023/12/03 01:41:52;;;;;;;84.10;33.33;;;2.30;99.90;;;;;;6213248;23;20074;-75
2023/12/03 01:44:18;;;;;;;89.87;31.70;;;2.30;99.90;;;;;;6186601;23;20005;-75
2023/12/03 01:46:47;;;;;;;120.43;37.37;;;2.30;99.90;;;;;;6212668;23;20068;-75
2023/12/03 01:49:13;;;;;;;121.37;36.37;;;2.30;99.90;;;;;;6186100;23;20383;-75
2023/12/03 01:51:38;;;;;;;138.10;39.87;;;2.30;99.90;;;;;;6186430;23;20001;-75
2023/12/03 01:54:05;;;;;;;118.90;35.97;;;2.40;99.90;;;;;;6213045;23;20005;-76
2023/12/03 01:56:30;;;;;;;115.93;38.97;;;2.40;99.90;;;;;;6213164;23;20000;-75
2023/12/03 01:58:56;;;;;;;114.23;35.50;;;2.40;99.90;;;;;;6186929;23;20031;-75
2023/12/03 02:01:22;;;;;;;136.47;42.27;;;2.40;99.90;;;;;;6212390;23;20008;-75
2023/12/03 02:03:48;;;;;;;114.40;36.70;;;2.40;99.90;;;;;;6186241;23;20019;-75
2023/12/03 02:06:13;;;;;;;110.03;37.70;;;2.40;99.90;;;;;;6212873;23;20012;-75
2023/12/03 02:08:39;;;;;;;103.87;37.37;;;2.40;99.90;;;;;;6185790;23;20302;-75
2023/12/03 02:11:06;;;;;;;120.43;39.23;;;2.40;99.90;;;;;;6212741;23;20005;-75
2023/12/03 02:13:37;;;;;;;112.07;37.63;;;2.40;99.90;;;;;;6185786;23;20032;-75
2023/12/03 02:16:03;;;;;;;154.27;43.27;;;2.50;99.90;;;;;;6212387;23;20009;-75
2023/12/03 02:18:31;;;;;;;113.73;34.67;;;2.40;99.90;;;;;;6185888;23;20001;-75
2023/12/03 02:20:57;;;;;;;163.57;43.60;;;2.40;99.90;;;;;;6212689;23;20042;-75
2023/12/03 02:23:22;;;;;;;108.77;36.60;;;2.50;99.90;;;;;;6210787;23;20000;-75
2023/12/03 02:25:50;;;;;;;111.80;36.63;;;2.50;99.90;;;;;;6212737;23;20032;-75
2023/12/03 02:28:17;;;;;;;92.77;36.40;;;2.50;99.90;;;;;;6212457;23;20381;-75
2023/12/03 02:30:43;;;;;;;121.57;40.07;;;2.60;99.90;;;;;;6185366;23;20031;-75
2023/12/03 02:33:09;;;;;;;122.53;40.70;;;2.60;99.90;;;;;;6212407;23;20000;-75
2023/12/03 02:35:34;;;;;;;100.57;39.10;;;2.60;99.90;;;;;;6212153;23;20011;-75
2023/12/03 02:38:00;;;;;;;111.63;38.63;;;2.60;99.90;;;;;;6185463;23;19997;-75
2023/12/03 02:40:25;;;;;;;112.07;38.07;;;2.60;99.90;;;;;;6185564;23;20015;-75
2023/12/03 02:42:51;;;;;;;92.27;37.87;;;2.70;99.90;;;;;;6212168;23;20058;-75
2023/12/03 02:45:17;;;;;;;122.63;39.83;;;2.70;99.90;;;;;;6212065;23;20007;-75
2023/12/03 02:47:43;;;;;;;93.73;34.90;;;2.70;99.90;;;;;;6185219;23;20373;-75
2023/12/03 02:50:09;;;;;;;103.33;35.80;;;2.70;99.90;;;;;;6185611;23;20005;-75
2023/12/03 02:52:34;;;;;;;99.40;34.77;;;2.70;99.90;;;;;;6185496;23;20011;-75
2023/12/03 02:55:00;;;;;;;138.17;41.83;;;2.80;99.90;;;;;;6185890;23;20381;-75
2023/12/03 02:57:26;;;;;;;88.57;35.57;;;2.80;99.90;;;;;;6211959;23;20000;-75
2023/12/03 02:59:51;;;;;;;104.30;37.37;;;2.80;99.90;;;;;;6211694;23;19997;-75
2023/12/03 03:02:17;;;;;;;90.87;35.77;;;2.80;99.90;;;;;;6185743;23;20009;-75
2023/12/03 03:04:42;;;;;;;88.30;34.27;;;2.90;99.90;;;;;;6188165;23;20062;-75
2023/12/03 03:07:08;;;;;;;82.77;34.57;;;2.90;99.90;;;;;;6185078;23;20012;-75
2023/12/03 03:09:33;;;;;;;79.23;34.13;;;2.90;99.90;;;;;;6185276;23;20084;-75
2023/12/03 03:11:59;;;;;;;81.90;35.17;;;2.90;99.90;;;;;;6212261;23;19997;-75
2023/12/03 03:14:25;;;;;;;89.17;37.63;;;2.90;99.90;;;;;;6184822;23;20493;-75
2023/12/03 03:16:53;;;;;;;81.43;35.83;;;2.90;99.90;;;;;;6187258;23;20009;-75
2023/12/03 03:19:20;;;;;;;79.27;35.30;;;3.00;99.90;;;;;;6191888;23;20011;-75
2023/12/03 03:21:46;;;;;;;71.43;33.50;;;2.90;99.90;;;;;;6220165;23;20005;-75
2023/12/03 03:24:13;;;;;;;82.17;38.13;;;2.90;99.90;;;;;;6193016;23;20009;-75
2023/12/03 03:26:42;;;;;;;74.10;36.47;;;2.90;99.90;;;;;;6190367;23;20004;-76
2023/12/03 03:29:07;;;;;;;63.23;31.07;;;2.90;99.90;;;;;;6190786;23;20012;-75
2023/12/03 03:31:33;;;;;;;75.97;37.83;;;3.00;99.90;;;;;;6220437;23;19997;-75
2023/12/03 03:34:02;;;;;;;67.97;35.83;;;3.00;99.90;;;;;;6192695;23;20012;-75
2023/12/03 03:36:28;;;;;;;65.40;32.73;;;3.00;99.90;;;;;;6217005;23;20035;-75
2023/12/03 03:38:54;;;;;;;68.33;35.97;;;3.00;99.90;;;;;;6217701;23;20000;-75
2023/12/03 03:41:19;;;;;;;66.83;36.10;;;3.00;99.90;;;;;;6189240;23;20008;-75
2023/12/03 03:43:45;;;;;;;66.60;36.70;;;3.10;99.90;;;;;;6186165;23;20023;-76
2023/12/03 03:46:11;;;;;;;68.30;38.30;;;3.10;99.90;;;;;;6156779;23;20083;-77
2023/12/03 03:48:37;;;;;;;62.70;36.17;;;3.10;99.90;;;;;;6213972;23;20008;-76
2023/12/03 03:51:05;;;;;;;79.40;39.97;;;3.10;99.90;;;;;;6213558;23;20000;-76
2023/12/03 03:53:31;;;;;;;68.13;36.73;;;3.10;99.90;;;;;;6186114;23;20011;-76
2023/12/03 03:55:56;;;;;;;62.13;37.80;;;3.00;99.90;;;;;;6182543;23;20583;-77
2023/12/03 03:58:22;;;;;;;62.83;36.43;;;3.10;99.90;;;;;;6211270;23;20115;-76
2023/12/03 04:00:47;;;;;;;65.37;37.17;;;3.10;99.90;;;;;;6213738;23;20028;-77
2023/12/03 04:03:13;;;;;;;55.43;33.70;;;3.10;99.90;;;;;;6214703;23;20031;-76
2023/12/03 04:05:38;;;;;;;55.33;33.50;;;3.10;99.90;;;;;;6214930;23;20063;-76
2023/12/03 04:08:04;;;;;;;53.77;33.70;;;3.10;99.90;;;;;;6213098;23;20019;-76
2023/12/03 04:10:30;;;;;;;54.40;35.47;;;3.10;99.90;;;;;;6213434;23;20013;-76
2023/12/03 04:12:56;;;;;;;57.87;33.70;;;3.10;99.90;;;;;;6187443;23;20426;-76
2023/12/03 04:15:22;;;;;;;55.43;33.63;;;3.10;99.90;;;;;;6212170;23;20016;-77
2023/12/03 04:17:47;;;;;;;52.77;31.87;;;3.10;99.90;;;;;;6214383;23;20452;-77
2023/12/03 04:20:13;;;;;;;57.27;33.37;;;3.10;99.90;;;;;;6212533;23;20437;-76
2023/12/03 04:22:38;;;;;;;56.50;33.87;;;3.10;99.90;;;;;;6214317;23;20001;-76
2023/12/03 04:25:04;;;;;;;55.00;34.33;;;3.10;99.90;;;;;;6187097;23;20062;-76
2023/12/03 04:27:30;;;;;;;54.77;32.47;;;3.10;99.90;;;;;;6187223;23;20036;-76
2023/12/03 04:29:56;;;;;;;56.43;32.37;;;3.10;99.90;;;;;;6213679;23;20001;-76
2023/12/03 04:32:22;;;;;;;50.93;31.23;;;3.10;99.90;;;;;;6213795;23;20422;-76
2023/12/03 04:34:47;;;;;;;49.93;31.37;;;3.10;99.90;;;;;;6186775;23;20457;-76
2023/12/03 04:37:13;;;;;;;50.17;30.97;;;3.10;99.90;;;;;;6213345;23;20091;-76
2023/12/03 04:39:38;;;;;;;46.63;31.57;;;3.10;99.90;;;;;;6186831;23;20509;-76
2023/12/03 04:42:04;;;;;;;47.43;30.80;;;3.10;99.90;;;;;;6213061;23;20395;-76
2023/12/03 04:44:33;;;;;;;49.17;31.23;;;3.10;99.90;;;;;;6214029;23;20008;-76
2023/12/03 04:46:58;;;;;;;44.57;29.67;;;3.20;99.90;;;;;;6186714;23;20180;-76
2023/12/03 04:49:25;;;;;;;51.57;31.43;;;3.10;99.90;;;;;;6186736;23;20052;-76
2023/12/03 04:51:50;;;;;;;42.37;28.77;;;3.20;99.90;;;;;;6213791;23;20004;-76
2023/12/03 04:54:16;;;;;;;44.37;28.37;;;3.10;99.90;;;;;;6186785;23;20422;-76
2023/12/03 04:56:42;;;;;;;45.47;29.00;;;3.20;99.90;;;;;;6186860;23;20001;-76
2023/12/03 04:59:07;;;;;;;49.67;29.93;;;3.10;99.90;;;;;;6213299;23;20005;-76
2023/12/03 05:01:33;;;;;;;45.17;27.57;;;3.10;99.90;;;;;;6213785;23;20004;-76
2023/12/03 05:03:58;;;;;;;44.03;27.60;;;3.10;99.90;;;;;;6212977;23;20095;-76
2023/12/03 05:06:24;;;;;;;42.10;26.43;;;3.10;99.90;;;;;;6187019;23;20075;-76
2023/12/03 05:08:50;;;;;;;43.40;27.07;;;3.10;99.90;;;;;;6186493;23;20011;-76
2023/12/03 05:11:16;;;;;;;41.10;25.50;;;3.10;99.90;;;;;;6212889;23;20011;-76
2023/12/03 05:13:42;;;;;;;43.90;26.17;;;3.10;99.90;;;;;;6211745;23;20009;-76
2023/12/03 05:16:08;;;;;;;39.83;26.97;;;3.10;99.90;;;;;;6186231;23;20027;-76
2023/12/03 05:18:33;;;;;;;42.83;25.50;;;3.10;99.90;;;;;;6213306;23;19996;-76
2023/12/03 05:20:59;;;;;;;36.63;25.80;;;3.10;99.90;;;;;;6213536;23;20055;-76
2023/12/03 05:23:25;;;;;;;45.80;28.50;;;3.00;99.90;;;;;;6186752;23;20051;-76
2023/12/03 05:25:52;;;;;;;47.07;27.63;;;3.00;99.90;;;;;;6213102;23;20024;-76
2023/12/03 05:28:17;;;;;;;41.27;25.93;;;3.00;99.90;;;;;;6186949;23;20004;-76
2023/12/03 05:30:43;;;;;;;44.07;28.90;;;3.00;99.90;;;;;;6212857;23;20518;-76
2023/12/03 05:33:10;;;;;;;41.97;27.17;;;2.90;99.90;;;;;;6212688;23;20497;-76
2023/12/03 05:35:35;;;;;;;44.20;27.70;;;2.90;99.90;;;;;;6212337;23;20443;-76
2023/12/03 05:38:01;;;;;;;41.03;25.00;;;2.90;99.90;;;;;;6185865;23;20011;-76
2023/12/03 05:40:26;;;;;;;42.93;26.63;;;2.80;99.90;;;;;;6213147;23;20071;-76
2023/12/03 05:42:52;;;;;;;47.90;26.13;;;2.80;99.90;;;;;;6183347;23;20005;-76
2023/12/03 05:45:17;;;;;;;38.57;25.07;;;2.70;99.90;;;;;;6210210;23;20054;-76
2023/12/03 05:47:43;;;;;;;45.83;27.47;;;2.60;99.90;;;;;;6212041;23;20009;-76
2023/12/03 05:50:09;;;;;;;44.37;27.30;;;2.50;99.90;;;;;;6211506;23;20004;-76
2023/12/03 05:52:34;;;;;;;40.50;25.23;;;2.50;99.90;;;;;;6212757;23;20051;-76
2023/12/03 05:55:00;;;;;;;46.83;26.47;;;2.40;99.90;;;;;;6185803;23;20773;-76
2023/12/03 05:57:25;;;;;;;46.03;28.67;;;2.30;99.90;;;;;;6212639;23;20007;-76
2023/12/03 05:59:52;;;;;;;45.03;28.13;;;2.30;99.90;;;;;;6212838;23;20058;-76
2023/12/03 06:02:18;;;;;;;45.50;27.67;;;2.30;99.90;;;;;;6186000;23;20000;-76
2023/12/03 06:04:43;;;;;;;43.53;27.23;;;2.20;99.90;;;;;;6212694;23;20004;-76
2023/12/03 06:07:09;;;;;;;38.90;23.87;;;2.20;99.90;;;;;;6185982;23;20131;-76
2023/12/03 06:09:35;;;;;;;40.30;25.23;;;2.10;99.90;;;;;;6186139;23;20058;-76
2023/12/03 06:12:00;;;;;;;45.63;26.07;;;2.10;99.90;;;;;;6212676;23;20429;-76
2023/12/03 06:14:26;;;;;;;53.97;29.03;;;2.00;99.90;;;;;;6185567;23;20311;-76
2023/12/03 06:16:52;;;;;;;45.90;26.00;;;2.00;99.90;;;;;;6185504;23;20007;-76
2023/12/03 06:19:18;;;;;;;42.03;24.73;;;1.90;99.90;;;;;;6212256;23;20008;-76
2023/12/03 06:21:43;;;;;;;43.40;26.93;;;1.90;99.90;;;;;;6185940;23;20079;-76
2023/12/03 06:24:09;;;;;;;39.17;23.33;;;1.80;99.90;;;;;;6185545;23;20004;-76
2023/12/03 06:26:34;;;;;;;39.37;25.50;;;1.80;99.90;;;;;;6211826;23;19997;-76
2023/12/03 06:29:00;;;;;;;44.13;24.47;;;1.70;99.90;;;;;;6212234;23;20024;-75
2023/12/03 06:31:26;;;;;;;45.40;25.97;;;1.70;99.90;;;;;;6185330;23;20047;-76
2023/12/03 06:33:52;;;;;;;45.97;25.83;;;1.60;99.90;;;;;;6212694;23;20395;-76
2023/12/03 06:36:18;;;;;;;45.80;24.17;;;1.60;99.90;;;;;;6212072;23;20024;-76
2023/12/03 06:38:44;;;;;;;44.13;25.23;;;1.60;99.90;;;;;;6212136;23;19997;-76
2023/12/03 06:41:10;;;;;;;43.77;26.10;;;1.60;99.90;;;;;;6212754;23;19997;-76
2023/12/03 06:43:35;;;;;;;45.77;26.30;;;1.50;99.90;;;;;;6212050;23;20366;-76
2023/12/03 06:46:01;;;;;;;50.57;27.60;;;1.50;99.90;;;;;;6212218;23;20001;-76
2023/12/03 06:48:27;;;;;;;47.37;27.10;;;1.50;99.90;;;;;;6186075;23;20092;-76
2023/12/03 06:50:53;;;;;;;45.83;25.33;;;1.50;99.90;;;;;;6186647;23;20020;-77
2023/12/03 06:53:19;;;;;;;57.60;27.93;;;1.50;99.90;;;;;;6214304;23;19996;-76
2023/12/03 06:55:45;;;;;;;45.37;25.90;;;1.50;99.90;;;;;;6188097;23;20012;-76
2023/12/03 06:58:11;;;;;;;49.87;26.93;;;1.40;99.90;;;;;;6188406;23;20377;-76
2023/12/03 07:00:37;;;;;;;53.70;29.07;;;1.40;99.90;;;;;;6214557;23;20000;-76
2023/12/03 07:03:03;;;;;;;53.10;29.17;;;1.40;99.90;;;;;;6215496;23;20000;-76
2023/12/03 07:05:30;;;;;;;49.77;27.47;;;1.30;99.90;;;;;;6189324;23;20334;-76
2023/12/03 07:07:56;;;;;;;49.63;26.63;;;1.30;99.90;;;;;;6190106;23;20488;-76
2023/12/03 07:10:21;;;;;;;61.67;32.87;;;1.30;99.90;;;;;;6188430;23;20347;-77
2023/12/03 07:12:47;;;;;;;56.47;29.23;;;1.20;99.90;;;;;;6189347;23;20008;-77
2023/12/03 07:15:14;;;;;;;50.50;26.30;;;1.20;99.90;;;;;;6191620;23;20016;-76
2023/12/03 07:17:40;;;;;;;54.70;27.77;;;1.20;99.90;;;;;;6217608;23;19997;-77
2023/12/03 07:20:10;;;;;;;61.30;32.73;;;1.20;99.90;;;;;;6212505;23;20007;-76
2023/12/03 07:22:35;;;;;;;54.47;29.13;;;1.10;99.90;;;;;;6211740;23;20000;-76
2023/12/03 07:25:04;;;;;;;55.40;30.57;;;1.10;99.90;;;;;;6211288;23;20434;-76
2023/12/03 07:27:30;;;;;;;50.63;28.63;;;1.10;99.90;;;;;;6211916;23;20795;-76
2023/12/03 07:29:56;;;;;;;52.40;28.13;;;1.00;99.90;;;;;;6185079;23;20001;-76
2023/12/03 07:32:25;;;;;;;46.73;26.83;;;1.10;99.90;;;;;;6210985;23;20009;-76
2023/12/03 07:34:51;;;;;;;58.47;29.33;;;1.00;99.90;;;;;;6213444;23;20457;-76
2023/12/03 07:37:17;;;;;;;48.37;26.33;;;1.00;99.90;;;;;;6213843;23;20001;-76
2023/12/03 07:39:43;;;;;;;60.57;31.93;;;1.00;99.90;;;;;;6213253;23;20004;-77
2023/12/03 07:42:08;;;;;;;53.87;29.43;;;1.00;99.90;;;;;;6213956;23;19997;-76
2023/12/03 07:44:34;;;;;;;53.03;26.93;;;1.00;99.90;;;;;;6213467;23;20430;-77
2023/12/03 07:47:01;;;;;;;58.77;29.10;;;1.00;99.90;;;;;;6212356;23;20008;-76
2023/12/03 07:49:26;;;;;;;53.30;27.57;;;0.90;99.90;;;;;;6186489;23;20494;-76
2023/12/03 07:51:52;;;;;;;73.33;33.13;;;1.00;99.90;;;;;;6214753;23;20005;-77
2023/12/03 07:54:17;;;;;;;49.43;27.13;;;0.90;99.90;;;;;;6186392;23;20014;-77
2023/12/03 07:56:43;;;;;;;47.87;26.87;;;0.90;99.90;;;;;;6213390;23;20000;-76
2023/12/03 07:59:09;;;;;;;51.10;27.47;;;0.90;99.90;;;;;;6186321;23;20430;-76
2023/12/03 08:01:35;;;;;;;56.67;29.00;;;0.90;99.90;;;;;;6186662;23;20036;-76
2023/12/03 08:04:03;;;;;;;64.57;29.43;;;0.90;99.90;;;;;;6211600;23;20104;-77
2023/12/03 08:06:29;;;;;;;51.37;26.37;;;0.90;99.90;;;;;;6186937;23;20008;-77
2023/12/03 08:08:57;;;;;;;52.83;27.63;;;0.90;99.90;;;;;;6186866;23;20484;-76
2023/12/03 08:11:23;;;;;;;51.10;26.47;;;0.90;99.90;;;;;;6186512;23;20058;-76
2023/12/03 08:13:48;;;;;;;51.33;29.87;;;0.90;99.90;;;;;;6186989;23;20005;-77
2023/12/03 08:16:14;;;;;;;52.53;29.17;;;1.00;99.90;;;;;;6213224;23;20027;-76
2023/12/03 08:18:40;;;;;;;53.33;29.80;;;1.00;99.90;;;;;;6186603;23;20032;-76
2023/12/03 08:21:05;;;;;;;52.17;26.07;;;1.00;99.90;;;;;;6213711;23;20468;-76
2023/12/03 08:23:32;;;;;;;56.13;27.87;;;1.00;99.90;;;;;;6186192;23;20008;-76
2023/12/03 08:25:58;;;;;;;48.73;25.03;;;1.00;99.90;;;;;;6213872;23;20080;-77
2023/12/03 08:28:24;;;;;;;50.13;26.20;;;1.00;99.90;;;;;;6212459;23;20088;-76
2023/12/03 08:30:49;;;;;;;53.17;26.27;;;1.00;99.90;;;;;;6213514;23;20032;-76
2023/12/03 08:33:15;;;;;;;53.60;25.70;;;1.00;99.90;;;;;;6186017;23;20001;-76
2023/12/03 08:35:41;;;;;;;52.10;27.73;;;1.00;99.90;;;;;;6186796;23;20103;-76
2023/12/03 08:38:07;;;;;;;47.43;24.83;;;1.00;99.90;;;;;;6212477;23;20028;-76
2023/12/03 08:40:32;;;;;;;54.47;27.13;;;1.10;99.90;;;;;;6185649;23;20379;-76
2023/12/03 08:42:59;;;;;;;46.43;25.40;;;1.10;99.90;;;;;;6212353;23;20496;-75
2023/12/03 08:45:25;;;;;;;50.20;24.67;;;1.10;99.90;;;;;;6185450;23;20015;-76
2023/12/03 08:47:50;;;;;;;47.80;26.00;;;1.10;99.90;;;;;;6184583;23;20005;-76
2023/12/03 08:50:16;;;;;;;47.57;24.50;;;1.20;99.90;;;;;;6185532;23;20001;-75
2023/12/03 08:52:41;;;;;;;51.13;24.83;;;1.20;99.90;;;;;;6211918;23;19996;-74
2023/12/03 08:55:08;;;;;;;57.00;25.90;;;1.30;99.90;;;;;;6212560;23;20032;-74
2023/12/03 08:57:34;;;;;;;55.40;26.03;;;1.30;99.90;;;;;;6186392;23;20001;-74
2023/12/03 09:00:00;;;;;;;50.07;25.67;;;1.40;99.90;;;;;;6185069;23;20334;-74
2023/12/03 09:02:25;;;;;;;45.40;23.70;;;1.40;99.90;;;;;;6184210;23;20000;-74
2023/12/03 09:04:51;;;;;;;44.60;24.27;;;1.50;99.90;;;;;;6213050;23;20526;-74
2023/12/03 09:07:17;;;;;;;51.30;25.10;;;1.60;99.90;;;;;;6186745;23;20011;-74
2023/12/03 09:09:42;;;;;;;46.53;25.07;;;1.60;99.90;;;;;;6186312;23;20020;-74
2023/12/03 09:12:09;;;;;;;49.40;24.80;;;1.70;99.90;;;;;;6185697;23;20005;-74
2023/12/03 09:14:34;;;;;;;44.10;24.53;;;1.70;99.90;;;;;;6185656;23;20447;-74
2023/12/03 09:17:00;;;;;;;45.50;24.90;;;1.80;99.90;;;;;;6185275;23;20007;-74
2023/12/03 09:19:28;;;;;;;40.43;21.30;;;1.80;99.90;;;;;;6185677;23;20001;-74
2023/12/03 09:21:54;;;;;;;41.23;23.07;;;1.90;99.90;;;;;;6185668;23;20062;-74
2023/12/03 09:24:19;;;;;;;40.73;24.30;;;1.90;99.90;;;;;;6185192;23;20008;-75
2023/12/03 09:26:46;;;;;;;46.30;24.37;;;2.00;99.90;;;;;;6185900;23;20088;-74
2023/12/03 09:29:12;;;;;;;44.10;24.47;;;2.00;99.90;;;;;;6185521;23;20005;-74
2023/12/03 09:31:39;;;;;;;47.60;22.63;;;2.00;99.90;;;;;;6185690;23;20487;-74
2023/12/03 09:34:05;;;;;;;36.53;21.37;;;2.00;99.90;;;;;;6212102;23;20415;-74
2023/12/03 09:36:31;;;;;;;43.37;22.70;;;2.00;99.90;;;;;;6185925;23;20032;-74
2023/12/03 09:38:57;;;;;;;45.07;23.27;;;2.00;99.90;;;;;;6211170;23;20008;-74
2023/12/03 09:41:24;;;;;;;49.80;24.57;;;2.10;99.90;;;;;;6184529;23;20000;-74
2023/12/03 09:43:58;;;;;;;41.23;20.23;;;2.10;99.90;;;;;;6185807;23;20411;-74
2023/12/03 09:46:24;;;;;;;38.85;21.25;;;2.10;99.90;;;;;;6185490;23;20039;-74
2023/12/03 09:48:52;;;;;;;42.20;22.37;;;2.20;99.90;;;;;;6186065;23;20032;-74
2023/12/03 09:51:18;;;;;;;41.37;23.03;;;2.20;99.90;;;;;;6185697;23;20397;-74
2023/12/03 09:53:46;;;;;;;37.87;20.73;;;2.30;99.90;;;;;;6185933;23;20009;-74
2023/12/03 09:56:12;;;;;;;41.10;21.03;;;2.30;99.90;;;;;;6185785;23;20032;-73
2023/12/03 09:58:39;;;;;;;43.70;23.20;;;2.30;99.90;;;;;;6185872;23;20012;-74
2023/12/03 10:01:05;;;;;;;41.90;22.17;;;2.40;99.90;;;;;;6184839;23;20016;-75
2023/12/03 10:03:31;;;;;;;35.80;21.23;;;2.40;99.90;;;;;;6212074;23;20053;-74
2023/12/03 10:05:57;;;;;;;42.37;22.00;;;2.40;99.90;;;;;;6185744;23;20001;-74
2023/12/03 10:08:23;;;;;;;34.90;19.40;;;2.40;99.90;;;;;;6185437;23;20001;-74
2023/12/03 10:11:02;;;;;;;35.73;20.90;;;2.40;99.90;;;;;;6185206;23;20050;-74
2023/12/03 10:13:29;;;;;;;37.70;20.90;;;2.40;99.90;;;;;;6185988;23;20005;-74
2023/12/03 10:15:55;;;;;;;41.80;20.97;;;2.50;99.90;;;;;;6210638;23;20099;-74
2023/12/03 10:18:21;;;;;;;36.40;20.83;;;2.40;99.90;;;;;;6185192;23;20009;-74
2023/12/03 10:20:47;;;;;;;38.30;22.20;;;2.50;99.90;;;;;;6212460;23;20005;-74
2023/12/03 10:23:16;;;;;;;35.60;20.57;;;2.50;99.90;;;;;;6212507;23;20000;-74
2023/12/03 10:25:41;;;;;;;36.50;21.20;;;2.50;99.90;;;;;;6212801;23;20012;-74
2023/12/03 10:28:11;;;;;;;32.87;20.77;;;2.50;99.90;;;;;;6212212;23;20001;-74
2023/12/03 10:30:37;;;;;;;34.90;20.03;;;2.50;99.90;;;;;;6211937;23;20398;-74
2023/12/03 10:33:06;;;;;;;34.17;19.43;;;2.50;99.90;;;;;;6184986;23;20008;-74
2023/12/03 10:35:37;;;;;;;35.17;19.20;;;2.50;99.90;;;;;;6185497;23;20089;-74
2023/12/03 10:38:09;;;;;;;35.60;20.47;;;2.60;99.90;;;;;;6185492;23;20005;-74
2023/12/03 10:40:35;;;;;;;33.67;19.30;;;2.60;99.90;;;;;;6184911;23;20008;-74
2023/12/03 10:43:03;;;;;;;32.53;19.23;;;2.60;99.90;;;;;;6184576;23;19996;-73
2023/12/03 10:45:29;;;;;;;37.07;19.70;;;2.60;99.90;;;;;;6184827;23;20086;-74
2023/12/03 10:48:00;;;;;;;37.97;18.57;;;2.70;99.90;;;;;;6212316;23;20004;-74
2023/12/03 10:50:27;;;;;;;35.83;20.47;;;2.70;99.90;;;;;;6212282;23;20506;-73
2023/12/03 10:52:55;;;;;;;32.63;19.47;;;2.70;99.90;;;;;;6185629;23;20020;-73
2023/12/03 10:55:21;;;;;;;33.60;19.43;;;2.80;99.90;;;;;;6185017;23;20457;-74
2023/12/03 10:57:58;;;;;;;35.07;20.17;;;2.80;99.90;;;;;;6184710;23;20005;-74
2023/12/03 11:00:24;;;;;;;33.43;18.40;;;2.80;99.90;;;;;;6184691;23;20004;-71
2023/12/03 11:03:07;;;;;;;30.17;18.40;;;2.80;99.90;;;;;;6184937;23;20009;-71
2023/12/03 11:05:38;;;;;;;27.93;16.20;;;2.80;99.90;;;;;;6212296;23;20001;-70
2023/12/03 11:08:05;;;;;;;29.57;17.67;;;2.80;99.90;;;;;;6211620;23;20001;-70
2023/12/03 11:10:30;;;;;;;26.50;16.20;;;2.80;99.90;;;;;;6212349;23;20484;-70
2023/12/03 11:12:57;;;;;;;31.70;17.97;;;2.80;99.90;;;;;;6211983;23;19997;-71
2023/12/03 11:15:23;;;;;;;27.43;15.37;;;2.80;99.90;;;;;;6211548;23;20087;-71
2023/12/03 11:17:51;;;;;;;25.70;15.63;;;2.80;99.90;;;;;;6212328;23;20005;-71
2023/12/03 11:20:44;;;;;;;29.03;16.03;;;2.80;99.90;;;;;;6212045;23;20059;-71
2023/12/03 11:23:58;;;;;;;28.27;16.17;;;2.80;99.90;;;;;;6207890;23;20005;-71
2023/12/03 11:26:25;;;;;;;27.13;15.47;;;2.80;99.90;;;;;;6105319;23;20007;-71
2023/12/03 11:28:55;;;;;;;29.23;14.83;;;2.80;99.90;;;;;;6212138;23;19996;-71
2023/12/03 11:31:23;;;;;;;23.33;14.37;;;2.90;99.90;;;;;;6211614;23;19997;-71
2023/12/03 11:33:55;;;;;;;28.10;15.23;;;2.90;99.90;;;;;;6212423;23;20107;-71
2023/12/03 11:36:32;;;;;;;24.17;14.33;;;2.90;99.90;;;;;;6211910;23;20035;-71
2023/12/03 11:38:58;;;;;;;25.73;14.90;;;3.00;99.90;;;;;;6212546;23;20012;-71
2023/12/03 11:41:23;;;;;;;21.43;15.43;;;3.00;99.90;;;;;;6211665;23;20005;-71
2023/12/03 11:43:49;;;;;;;25.13;13.90;;;3.10;99.90;;;;;;6212012;23;20473;-71
2023/12/03 11:46:14;;;;;;;25.83;16.20;;;3.20;99.90;;;;;;6211544;23;20075;-71
2023/12/03 11:48:41;;;;;;;25.00;14.33;;;3.30;99.90;;;;;;6212530;23;20001;-71
2023/12/03 11:51:08;;;;;;;25.60;15.00;;;3.30;99.90;;;;;;6211675;23;20012;-71
2023/12/03 11:53:52;;;;;;;25.13;14.53;;;3.30;99.90;;;;;;6212003;23;20003;-71
2023/12/03 11:56:20;;;;;;;38.58;18.17;;;3.40;99.90;;;;;;6211936;23;20009;-71
2023/12/03 11:58:46;;;;;;;25.30;15.10;;;3.40;99.90;;;;;;6185070;23;20008;-71
2023/12/03 12:01:12;;;;;;;27.00;14.77;;;3.40;99.90;;;;;;6185734;23;20521;-71
2023/12/03 12:03:37;;;;;;;21.50;13.43;;;3.40;99.90;;;;;;6211754;23;19996;-71
2023/12/03 12:06:03;;;;;;;21.93;13.77;;;3.50;99.90;;;;;;6212421;23;19996;-71
2023/12/03 12:08:29;;;;;;;23.63;14.20;;;3.50;99.90;;;;;;6211977;23;20017;-71
2023/12/03 12:10:55;;;;;;;24.17;14.97;;;3.50;99.90;;;;;;6211799;23;20003;-71
2023/12/03 12:13:22;;;;;;;21.47;14.27;;;3.50;99.90;;;;;;6210912;23;20422;-71
2023/12/03 12:15:53;;;;;;;22.77;14.73;;;3.50;99.90;;;;;;6211449;23;20017;-71
2023/12/03 12:18:22;;;;;;;27.53;15.23;;;3.50;99.90;;;;;;6211714;23;20005;-74
2023/12/03 12:20:48;;;;;;;22.87;14.63;;;3.50;99.90;;;;;;6186966;23;20064;-74
2023/12/03 12:23:14;;;;;;;24.87;15.27;;;3.60;99.90;;;;;;6187131;23;20008;-74
2023/12/03 12:25:40;;;;;;;19.63;12.10;;;3.60;99.90;;;;;;6186477;23;20011;-75
2023/12/03 12:28:05;;;;;;;23.30;14.27;;;3.60;99.90;;;;;;6187029;23;20009;-76
2023/12/03 12:30:31;;;;;;;24.80;13.97;;;3.70;99.90;;;;;;6193015;23;20338;-76
2023/12/03 12:32:57;;;;;;;26.53;14.50;;;3.80;99.90;;;;;;6186819;23;20084;-76